Time;durP1;ratioP1;P1;durP2;ratioP2;P2;SDS_P1;SDS_P2;PMS_P1;PMS_P2;Temp;Humidity;BMP_temperature;BMP_pressure;BME280_temperature;BME280_humidity;BME280_pressure;Samples;Min_cycle;Max_cycle;Signal;HPM_P1;HPM_P2
2021/08/25 00:00:28;;;;;;;7.53;2.73;;;;;;;;;;5078985;28;20465;-49
2021/08/25 00:02:55;;;;;;;5.13;2.67;;;;;;;;;;5079089;28;20438;-56
2021/08/25 00:08:27;;;;;;;9.17;2.37;;;;;;;;;;5078500;28;20443;-49
2021/08/25 00:10:55;;;;;;;6.17;2.60;;;;;;;;;;5078868;28;20504;-49
2021/08/25 00:16:28;;;;;;;5.93;2.67;;;;;;;;;;5078641;28;20403;-47
2021/08/25 00:18:55;;;;;;;7.40;2.57;;;;;;;;;;5078481;28;20453;-51
2021/08/25 00:21:31;;;;;;;5.77;2.60;;;;;;;;;;5078751;28;20465;-48
2021/08/25 00:24:00;;;;;;;4.03;2.30;;;;;;;;;;5078530;28;20506;-52
2021/08/25 00:26:27;;;;;;;4.30;2.37;;;;;;;;;;5078975;28;20413;-48
2021/08/25 00:28:57;;;;;;;4.33;2.33;;;;;;;;;;5078722;28;20491;-51
2021/08/25 00:31:24;;;;;;;5.90;2.63;;;;;;;;;;5078705;28;20475;-53
2021/08/25 00:33:52;;;;;;;6.10;2.70;;;;;;;;;;5078455;28;20441;-46
2021/08/25 00:36:38;;;;;;;4.83;1.97;;;;;;;;;;5078819;28;20465;-50
2021/08/25 00:39:06;;;;;;;4.60;2.63;;;;;;;;;;5076679;28;20527;-50
2021/08/25 00:41:33;;;;;;;5.17;2.50;;;;;;;;;;5078369;28;20486;-47
2021/08/25 00:44:00;;;;;;;5.80;2.57;;;;;;;;;;5078561;28;20457;-51
2021/08/25 00:46:28;;;;;;;5.37;2.60;;;;;;;;;;5078208;28;20449;-58
2021/08/25 00:49:03;;;;;;;4.10;2.50;;;;;;;;;;5078279;28;20460;-51
2021/08/25 00:51:31;;;;;;;3.83;2.00;;;;;;;;;;5077986;28;20471;-54
2021/08/25 00:53:58;;;;;;;5.60;3.00;;;;;;;;;;5078621;28;20479;-48
2021/08/25 00:56:40;;;;;;;4.20;2.30;;;;;;;;;;5078136;28;20483;-52
2021/08/25 00:59:07;;;;;;;7.30;3.17;;;;;;;;;;5076350;28;20480;-48
2021/08/25 01:01:38;;;;;;;4.57;2.03;;;;;;;;;;5078052;28;20492;-55
2021/08/25 01:04:37;;;;;;;6.57;2.67;;;;;;;;;;5077873;28;20526;-50
2021/08/25 01:07:06;;;;;;;8.03;2.87;;;;;;;;;;5075983;28;20511;-51
2021/08/25 01:09:33;;;;;;;8.53;3.13;;;;;;;;;;5078117;28;20497;-54
2021/08/25 01:12:11;;;;;;;4.77;2.03;;;;;;;;;;5078200;28;20487;-51
2021/08/25 01:14:38;;;;;;;4.87;2.30;;;;;;;;;;5077799;28;20479;-56
2021/08/25 01:17:06;;;;;;;4.67;2.17;;;;;;;;;;5078156;28;20433;-52
2021/08/25 01:20:00;;;;;;;7.53;2.60;;;;;;;;;;5077996;28;20460;-52
2021/08/25 01:22:29;;;;;;;5.20;2.90;;;;;;;;;;5078297;28;20457;-49
2021/08/25 01:24:57;;;;;;;5.53;2.70;;;;;;;;;;5077731;28;20483;-53
2021/08/25 01:30:30;;;;;;;8.87;3.27;;;;;;;;;;5075770;28;20482;-50
2021/08/25 01:32:59;;;;;;;5.93;2.83;;;;;;;;;;5077833;28;20437;-48
2021/08/25 01:35:38;;;;;;;7.00;2.80;;;;;;;;;;5077686;28;20461;-52
2021/08/25 01:38:06;;;;;;;8.60;2.90;;;;;;;;;;5075721;28;20500;-50
2021/08/25 01:40:35;;;;;;;6.53;3.60;;;;;;;;;;5077403;28;20524;-46
2021/08/25 01:43:02;;;;;;;5.00;2.87;;;;;;;;;;5077601;28;20461;-50
2021/08/25 01:45:33;;;;;;;8.07;3.70;;;;;;;;;;5077236;28;20437;-51
2021/08/25 01:48:02;;;;;;;10.13;3.10;;;;;;;;;;5077311;28;20502;-53
2021/08/25 01:50:29;;;;;;;5.83;2.80;;;;;;;;;;5077151;28;20483;-58
2021/08/25 01:52:56;;;;;;;7.73;3.13;;;;;;;;;;5076962;28;20467;-58
2021/08/25 01:58:27;;;;;;;4.30;2.53;;;;;;;;;;5074715;28;20540;-54
2021/08/25 02:00:55;;;;;;;6.40;2.70;;;;;;;;;;5076524;28;20448;-56
2021/08/25 02:03:32;;;;;;;6.73;4.10;;;;;;;;;;5076783;28;20460;-57
2021/08/25 02:05:59;;;;;;;5.57;2.80;;;;;;;;;;5077105;28;20464;-53
2021/08/25 02:08:26;;;;;;;5.17;2.87;;;;;;;;;;5076853;28;20470;-45
2021/08/25 02:10:55;;;;;;;13.30;3.40;;;;;;;;;;5077041;28;20488;-52
2021/08/25 02:13:22;;;;;;;7.80;3.00;;;;;;;;;;5077054;28;20475;-54
2021/08/25 02:15:49;;;;;;;8.00;2.83;;;;;;;;;;5077074;28;20437;-52
2021/08/25 02:21:23;;;;;;;8.30;3.47;;;;;;;;;;5075131;28;20483;-57
2021/08/25 02:23:50;;;;;;;4.10;2.30;;;;;;;;;;5077015;28;20533;-54
2021/08/25 02:26:25;;;;;;;6.60;2.43;;;;;;;;;;5076968;28;20475;-51
2021/08/25 02:28:54;;;;;;;4.50;2.10;;;;;;;;;;5059883;28;20449;-51
2021/08/25 02:31:22;;;;;;;6.40;3.43;;;;;;;;;;5076863;28;20571;-55
2021/08/25 02:34:00;;;;;;;8.13;3.70;;;;;;;;;;5076813;28;20475;-50
2021/08/25 02:36:29;;;;;;;5.07;2.60;;;;;;;;;;5076592;28;20475;-53
2021/08/25 02:38:56;;;;;;;6.60;3.73;;;;;;;;;;5076769;28;20456;-51
2021/08/25 02:41:25;;;;;;;6.13;3.53;;;;;;;;;;5076805;28;20496;-53
2021/08/25 02:43:52;;;;;;;7.03;3.50;;;;;;;;;;5076561;28;20483;-49
2021/08/25 02:46:20;;;;;;;7.70;4.07;;;;;;;;;;5076680;28;20462;-56
2021/08/25 02:51:52;;;;;;;8.63;4.00;;;;;;;;;;5064599;28;20555;-50
2021/08/25 02:54:19;;;;;;;7.47;3.50;;;;;;;;;;5056466;28;20461;-50
2021/08/25 02:57:16;;;;;;;8.30;4.17;;;;;;;;;;5056294;28;20461;-55
2021/08/25 02:59:44;;;;;;;7.20;3.70;;;;;;;;;;5072978;28;20523;-47
2021/08/25 03:02:11;;;;;;;13.40;3.20;;;;;;;;;;5076792;28;20479;-53
2021/08/25 03:04:44;;;;;;;4.20;2.70;;;;;;;;;;5076505;28;20451;-56
2021/08/25 03:07:13;;;;;;;7.57;3.00;;;;;;;;;;5074491;28;20484;-50
2021/08/25 03:09:40;;;;;;;7.83;4.23;;;;;;;;;;5076400;28;20455;-57
2021/08/25 03:12:22;;;;;;;5.90;3.43;;;;;;;;;;5075920;28;20460;-49
2021/08/25 03:14:49;;;;;;;7.20;3.90;;;;;;;;;;5076316;28;20456;-55
2021/08/25 03:17:17;;;;;;;5.83;3.43;;;;;;;;;;5076455;28;20460;-51
2021/08/25 03:20:06;;;;;;;6.33;3.80;;;;;;;;;;5076397;28;20444;-50
2021/08/25 03:22:35;;;;;;;16.23;3.23;;;;;;;;;;5075953;28;20452;-45
2021/08/25 03:25:03;;;;;;;9.00;4.30;;;;;;;;;;5075983;28;20448;-52
2021/08/25 03:27:30;;;;;;;7.30;3.80;;;;;;;;;;5075816;28;20466;-55
2021/08/25 03:29:57;;;;;;;6.93;3.43;;;;;;;;;;5078249;28;20454;-55
2021/08/25 03:32:31;;;;;;;6.07;3.23;;;;;;;;;;5079455;28;20421;-57
2021/08/25 03:34:58;;;;;;;8.70;4.33;;;;;;;;;;5079441;28;20425;-50
2021/08/25 03:37:25;;;;;;;9.20;4.07;;;;;;;;;;5079446;28;20476;-54
2021/08/25 03:39:55;;;;;;;6.53;3.50;;;;;;;;;;5076935;28;20471;-51
2021/08/25 03:42:22;;;;;;;13.37;4.07;;;;;;;;;;5077819;28;20593;-53
2021/08/25 03:44:49;;;;;;;9.23;3.50;;;;;;;;;;5079435;28;20448;-43
2021/08/25 03:47:18;;;;;;;7.77;4.40;;;;;;;;;;5079183;28;20498;-51
2021/08/25 03:49:45;;;;;;;5.90;3.37;;;;;;;;;;5079175;28;20559;-49
2021/08/25 03:52:12;;;;;;;10.60;5.00;;;;;;;;;;5079424;28;20441;-50
2021/08/25 03:55:05;;;;;;;9.57;4.47;;;;;;;;;;5079176;28;20448;-53
2021/08/25 03:57:34;;;;;;;7.53;3.43;;;;;;;;;;5061502;28;20539;-53
2021/08/25 04:00:01;;;;;;;6.77;4.10;;;;;;;;;;5079270;28;20444;-51
2021/08/25 04:02:29;;;;;;;8.50;2.83;;;;;;;;;;5079062;28;20464;-50
2021/08/25 04:04:56;;;;;;;6.10;4.30;;;;;;;;;;5079034;28;20577;-52
2021/08/25 04:07:33;;;;;;;11.47;5.60;;;;;;;;;;5078934;28;20465;-49
2021/08/25 04:10:08;;;;;;;7.23;3.80;;;;;;;;;;5078866;28;20443;-50
2021/08/25 04:13:00;;;;;;;8.60;4.20;;;;;;;;;;5078580;28;20456;-50
2021/08/25 04:15:28;;;;;;;8.47;3.00;;;;;;;;;;5075652;28;20450;-50
2021/08/25 04:17:58;;;;;;;6.90;3.87;;;;;;;;;;5078331;28;20527;-54
2021/08/25 04:20:37;;;;;;;9.57;4.23;;;;;;;;;;5078680;28;20452;-50
2021/08/25 04:23:06;;;;;;;7.97;4.40;;;;;;;;;;5075557;28;20479;-57
2021/08/25 04:25:33;;;;;;;9.40;4.13;;;;;;;;;;5078339;28;20515;-55
2021/08/25 04:31:05;;;;;;;10.70;4.33;;;;;;;;;;5076769;28;20481;-54
2021/08/25 04:33:35;;;;;;;6.80;3.87;;;;;;;;;;5063072;28;20448;-52
2021/08/25 04:36:10;;;;;;;6.63;3.30;;;;;;;;;;5077792;28;20516;-52
2021/08/25 04:38:37;;;;;;;7.83;4.00;;;;;;;;;;5078329;28;20459;-59
2021/08/25 04:41:05;;;;;;;8.63;4.30;;;;;;;;;;5077429;28;20466;-54
2021/08/25 04:43:58;;;;;;;7.50;4.67;;;;;;;;;;5077811;28;20490;-54
2021/08/25 04:46:26;;;;;;;7.37;4.50;;;;;;;;;;5077707;28;20451;-52
2021/08/25 04:48:54;;;;;;;8.00;4.40;;;;;;;;;;5068721;28;20452;-55
2021/08/25 04:51:23;;;;;;;8.77;3.70;;;;;;;;;;5077985;28;20491;-54
2021/08/25 04:53:51;;;;;;;12.33;4.80;;;;;;;;;;5077808;28;20465;-54
2021/08/25 04:56:45;;;;;;;12.33;4.60;;;;;;;;;;5078185;28;20435;-54
2021/08/25 04:59:12;;;;;;;11.43;4.47;;;;;;;;;;5077447;28;20483;-54
2021/08/25 05:01:42;;;;;;;12.17;3.90;;;;;;;;;;5077228;28;20479;-50
2021/08/25 05:07:14;;;;;;;7.00;3.93;;;;;;;;;;5057058;28;20409;-54
2021/08/25 05:09:41;;;;;;;8.30;4.60;;;;;;;;;;5057699;28;20445;-57
2021/08/25 05:15:13;;;;;;;6.80;3.40;;;;;;;;;;5069545;28;20491;-50
2021/08/25 05:17:42;;;;;;;5.83;3.57;;;;;;;;;;5077354;28;20460;-51
2021/08/25 05:20:10;;;;;;;8.07;3.70;;;;;;;;;;5076346;28;20468;-53
2021/08/25 05:22:37;;;;;;;7.10;3.87;;;;;;;;;;5076192;28;20464;-54
2021/08/25 05:25:05;;;;;;;7.93;4.00;;;;;;;;;;5076420;28;20425;-53
2021/08/25 05:27:32;;;;;;;8.30;3.63;;;;;;;;;;5076636;28;20461;-55
2021/08/25 05:30:06;;;;;;;9.80;3.60;;;;;;;;;;5076551;28;20521;-52
2021/08/25 05:32:33;;;;;;;7.30;3.63;;;;;;;;;;5076316;28;20477;-53
2021/08/25 05:35:02;;;;;;;9.20;4.00;;;;;;;;;;5076820;28;20463;-52
2021/08/25 05:37:32;;;;;;;13.80;4.53;;;;;;;;;;5075700;28;20441;-58
2021/08/25 05:39:59;;;;;;;7.47;3.20;;;;;;;;;;5075438;28;20432;-54
2021/08/25 05:42:27;;;;;;;7.10;3.60;;;;;;;;;;5076475;28;20449;-57
2021/08/25 05:44:57;;;;;;;7.97;4.20;;;;;;;;;;5061708;28;20495;-58
2021/08/25 05:47:50;;;;;;;7.97;4.07;;;;;;;;;;5073685;28;20463;-56
2021/08/25 05:53:36;;;;;;;8.97;4.87;;;;;;;;;;5064862;28;20484;-54
2021/08/25 05:56:13;;;;;;;6.33;3.63;;;;;;;;;;5072356;28;20441;-47
2021/08/25 05:58:42;;;;;;;8.77;4.10;;;;;;;;;;5068501;28;20449;-53
2021/08/25 06:01:34;;;;;;;8.47;4.17;;;;;;;;;;5073126;28;20437;-56
2021/08/25 06:04:18;;;;;;;8.03;3.53;;;;;;;;;;5068469;28;20450;-53
2021/08/25 06:06:47;;;;;;;6.03;3.60;;;;;;;;;;5056105;28;20466;-54
2021/08/25 06:09:14;;;;;;;8.30;4.30;;;;;;;;;;5056239;28;20451;-54
2021/08/25 06:11:43;;;;;;;8.07;4.00;;;;;;;;;;5056333;28;20489;-54
2021/08/25 06:14:20;;;;;;;13.40;4.13;;;;;;;;;;5055712;28;20434;-54
2021/08/25 06:16:50;;;;;;;11.27;5.27;;;;;;;;;;5070443;28;20461;-54
2021/08/25 06:19:28;;;;;;;8.10;4.23;;;;;;;;;;5060431;28;20454;-51
2021/08/25 06:21:55;;;;;;;8.37;4.20;;;;;;;;;;5056078;28;20434;-54
2021/08/25 06:24:22;;;;;;;9.83;4.23;;;;;;;;;;5056080;28;20484;-59
2021/08/25 06:26:51;;;;;;;11.57;5.00;;;;;;;;;;5056053;28;20426;-54
2021/08/25 06:29:20;;;;;;;7.00;3.57;;;;;;;;;;5056261;28;20466;-46
2021/08/25 06:31:47;;;;;;;7.70;4.50;;;;;;;;;;5055403;28;20489;-54
2021/08/25 06:34:15;;;;;;;10.83;4.40;;;;;;;;;;5055803;28;20462;-55
2021/08/25 06:36:43;;;;;;;7.03;4.43;;;;;;;;;;5055933;28;20449;-53
2021/08/25 06:39:17;;;;;;;9.33;4.40;;;;;;;;;;5056181;28;20482;-58
2021/08/25 06:41:44;;;;;;;8.50;4.63;;;;;;;;;;5060189;28;20464;-54
2021/08/25 06:44:30;;;;;;;10.90;4.43;;;;;;;;;;5076332;28;20433;-53
2021/08/25 06:46:57;;;;;;;11.63;4.53;;;;;;;;;;5076054;28;20422;-55
2021/08/25 06:49:24;;;;;;;8.80;5.03;;;;;;;;;;5076240;28;20483;-55
2021/08/25 06:51:54;;;;;;;11.87;5.13;;;;;;;;;;5071060;28;20485;-53
2021/08/25 06:54:25;;;;;;;10.50;4.77;;;;;;;;;;5073394;28;20488;-55
2021/08/25 06:56:53;;;;;;;9.50;5.10;;;;;;;;;;5075438;28;20452;-54
2021/08/25 06:59:22;;;;;;;12.40;4.67;;;;;;;;;;5069590;28;20438;-53
2021/08/25 07:02:06;;;;;;;17.17;5.77;;;;;;;;;;5074964;28;20445;-56
2021/08/25 07:04:58;;;;;;;10.60;4.30;;;;;;;;;;5079086;28;20456;-53
2021/08/25 07:07:27;;;;;;;12.10;4.90;;;;;;;;;;5077685;28;20453;-49
2021/08/25 07:09:55;;;;;;;10.50;5.03;;;;;;;;;;5079518;28;20448;-54
2021/08/25 07:12:22;;;;;;;7.30;3.93;;;;;;;;;;5079114;28;20464;-49
2021/08/25 07:14:53;;;;;;;15.17;5.17;;;;;;;;;;5079447;28;20441;-60
2021/08/25 07:17:29;;;;;;;6.43;4.03;;;;;;;;;;5079464;28;20475;-51
2021/08/25 07:19:57;;;;;;;8.30;4.47;;;;;;;;;;5079402;28;20460;-47
2021/08/25 07:22:26;;;;;;;9.80;5.53;;;;;;;;;;5079240;28;20445;-54
2021/08/25 07:24:53;;;;;;;9.40;5.57;;;;;;;;;;5078928;28;20468;-51
2021/08/25 07:27:21;;;;;;;10.30;4.40;;;;;;;;;;5078917;28;20439;-50
2021/08/25 07:29:55;;;;;;;11.00;5.50;;;;;;;;;;5078487;28;20547;-47
2021/08/25 07:32:22;;;;;;;11.87;4.90;;;;;;;;;;5078790;28;20491;-52
2021/08/25 07:34:52;;;;;;;11.00;4.63;;;;;;;;;;5078865;28;20519;-52
2021/08/25 07:37:47;;;;;;;7.50;4.37;;;;;;;;;;5078897;28;20440;-57
2021/08/25 07:40:15;;;;;;;10.67;4.67;;;;;;;;;;5048792;28;20452;-56
2021/08/25 07:42:53;;;;;;;9.57;5.57;;;;;;;;;;5078883;28;20429;-50
2021/08/25 07:45:22;;;;;;;13.73;4.97;;;;;;;;;;5078091;28;20433;-55
2021/08/25 07:47:59;;;;;;;9.07;4.60;;;;;;;;;;5078438;28;20507;-50
2021/08/25 07:50:27;;;;;;;7.13;4.33;;;;;;;;;;5072992;28;20538;-55
2021/08/25 07:52:55;;;;;;;9.70;4.90;;;;;;;;;;5058132;28;20505;-57
2021/08/25 07:55:23;;;;;;;8.83;4.57;;;;;;;;;;5057831;28;20481;-52
2021/08/25 07:57:50;;;;;;;10.87;4.37;;;;;;;;;;5057903;28;20484;-51
2021/08/25 08:00:23;;;;;;;8.73;5.30;;;;;;;;;;5058214;28;20489;-51
2021/08/25 08:02:53;;;;;;;14.50;6.83;;;;;;;;;;5058208;28;20480;-55
2021/08/25 08:05:21;;;;;;;10.63;3.90;;;;;;;;;;5078252;28;20492;-47
2021/08/25 08:07:48;;;;;;;9.40;4.57;;;;;;;;;;5077930;28;20473;-53
2021/08/25 08:10:21;;;;;;;8.83;4.00;;;;;;;;;;5077948;28;20510;-48
2021/08/25 08:12:48;;;;;;;7.30;4.27;;;;;;;;;;5077788;28;20469;-50
2021/08/25 08:15:17;;;;;;;8.07;4.50;;;;;;;;;;5076661;28;20493;-51
2021/08/25 08:17:46;;;;;;;9.30;4.13;;;;;;;;;;5077363;28;20480;-56
2021/08/25 08:20:15;;;;;;;6.20;3.60;;;;;;;;;;5077163;28;20457;-54
2021/08/25 08:22:43;;;;;;;15.47;3.97;;;;;;;;;;5077161;28;20457;-54
2021/08/25 08:25:11;;;;;;;8.20;3.70;;;;;;;;;;5077758;28;20441;-53
2021/08/25 08:27:49;;;;;;;7.73;3.90;;;;;;;;;;5077602;28;20441;-53
2021/08/25 08:30:17;;;;;;;8.30;3.53;;;;;;;;;;5076869;28;20452;-50
2021/08/25 08:32:44;;;;;;;8.00;3.80;;;;;;;;;;5066533;28;20508;-56
2021/08/25 08:35:12;;;;;;;6.93;3.97;;;;;;;;;;5056786;28;20662;-52
2021/08/25 08:37:40;;;;;;;11.47;4.83;;;;;;;;;;5057532;28;20450;-58
2021/08/25 08:40:08;;;;;;;6.63;3.83;;;;;;;;;;5068165;28;20476;-57
2021/08/25 08:42:36;;;;;;;6.97;3.20;;;;;;;;;;5077083;28;20468;-53
2021/08/25 08:45:11;;;;;;;7.93;4.40;;;;;;;;;;5076347;28;20555;-55
2021/08/25 08:47:39;;;;;;;11.57;4.47;;;;;;;;;;5077112;28;20437;-53
2021/08/25 08:50:06;;;;;;;7.83;5.17;;;;;;;;;;5074381;28;20515;-54
2021/08/25 08:52:37;;;;;;;7.43;4.10;;;;;;;;;;5076895;28;20489;-57
2021/08/25 08:55:05;;;;;;;7.17;4.27;;;;;;;;;;5077046;28;20456;-57
2021/08/25 08:57:32;;;;;;;7.83;5.33;;;;;;;;;;5077679;28;20514;-53
2021/08/25 09:00:07;;;;;;;14.33;5.93;;;;;;;;;;5077639;28;20519;-53
2021/08/25 09:02:40;;;;;;;9.60;4.50;;;;;;;;;;5078034;28;20452;-52
2021/08/25 09:05:16;;;;;;;8.60;4.40;;;;;;;;;;5077805;28;20487;-51
2021/08/25 09:07:48;;;;;;;7.40;4.40;;;;;;;;;;5077428;28;20449;-58
2021/08/25 09:10:21;;;;;;;9.07;5.10;;;;;;;;;;5077562;28;20441;-55
2021/08/25 09:12:50;;;;;;;9.10;3.87;;;;;;;;;;5077200;28;20485;-51
2021/08/25 09:15:25;;;;;;;9.97;3.90;;;;;;;;;;5077447;28;20532;-54
2021/08/25 09:17:56;;;;;;;12.30;4.50;;;;;;;;;;5077524;28;20502;-53
2021/08/25 09:20:24;;;;;;;7.37;4.50;;;;;;;;;;5077563;28;20430;-54
2021/08/25 09:23:11;;;;;;;6.40;3.90;;;;;;;;;;5076827;28;20475;-54
2021/08/25 09:25:59;;;;;;;7.40;3.63;;;;;;;;;;5058544;28;20477;-53
2021/08/25 09:28:40;;;;;;;8.83;4.07;;;;;;;;;;5068283;28;20580;-53
2021/08/25 09:31:11;;;;;;;8.23;3.90;;;;;;;;;;5075773;28;20456;-52
2021/08/25 09:33:39;;;;;;;5.20;3.13;;;;;;;;;;5075785;28;20496;-51
2021/08/25 09:36:13;;;;;;;6.40;3.37;;;;;;;;;;5076074;28;20501;-52
2021/08/25 09:38:41;;;;;;;8.83;3.63;;;;;;;;;;5075631;28;20441;-51
2021/08/25 09:41:10;;;;;;;8.10;4.53;;;;;;;;;;5075484;28;20950;-49
2021/08/25 09:43:38;;;;;;;7.47;4.40;;;;;;;;;;5056894;28;20453;-53
2021/08/25 09:46:18;;;;;;;7.17;4.13;;;;;;;;;;5059448;28;20714;-51
2021/08/25 09:48:48;;;;;;;7.33;3.10;;;;;;;;;;5075124;28;20455;-53
2021/08/25 09:51:20;;;;;;;10.47;4.60;;;;;;;;;;5074902;28;20441;-47
2021/08/25 09:53:48;;;;;;;5.90;4.07;;;;;;;;;;5074809;28;20476;-51
2021/08/25 09:56:22;;;;;;;5.93;3.57;;;;;;;;;;5075049;28;20449;-60
2021/08/25 09:58:51;;;;;;;4.43;2.90;;;;;;;;;;5058431;28;20438;-53
2021/08/25 10:01:35;;;;;;;7.37;3.90;;;;;;;;;;5055341;28;20457;-50
2021/08/25 10:04:07;;;;;;;4.17;2.53;;;;;;;;;;5065010;28;20461;-54
2021/08/25 10:06:37;;;;;;;6.20;3.97;;;;;;;;;;5075050;28;20473;-52
2021/08/25 10:09:13;;;;;;;4.60;3.43;;;;;;;;;;5074829;28;20468;-54
2021/08/25 10:12:01;;;;;;;6.00;3.60;;;;;;;;;;5073902;28;20457;-52
2021/08/25 10:14:31;;;;;;;7.17;3.90;;;;;;;;;;5075719;28;20445;-51
2021/08/25 10:17:02;;;;;;;7.00;4.77;;;;;;;;;;5057485;28;20434;-57
2021/08/25 10:19:33;;;;;;;6.03;3.17;;;;;;;;;;5054858;28;20492;-51
2021/08/25 10:22:01;;;;;;;8.40;3.87;;;;;;;;;;5066478;28;20457;-51
2021/08/25 10:24:28;;;;;;;8.40;3.37;;;;;;;;;;5071440;28;20449;-51
2021/08/25 10:27:06;;;;;;;7.73;4.40;;;;;;;;;;5073902;28;20519;-52
2021/08/25 10:29:35;;;;;;;6.63;3.40;;;;;;;;;;5071649;28;20476;-55
2021/08/25 10:35:32;;;;;;;9.43;3.43;;;;;;;;;;5074759;28;20453;-50
2021/08/25 10:38:14;;;;;;;4.70;3.13;;;;;;;;;;5056246;28;20498;-55
2021/08/25 10:40:43;;;;;;;8.63;4.10;;;;;;;;;;5058368;28;20529;-54
2021/08/25 10:43:34;;;;;;;5.00;3.10;;;;;;;;;;5059337;28;20470;-53
2021/08/25 10:46:17;;;;;;;8.13;3.93;;;;;;;;;;5069793;28;20437;-54
2021/08/25 10:48:50;;;;;;;6.53;3.90;;;;;;;;;;5068267;28;20466;-55
2021/08/25 10:53:55;;;;;;;6.27;3.40;;;;;;;;;;5057550;28;20480;-54
2021/08/25 10:56:38;;;;;;;10.80;5.07;;;;;;;;;;5059182;28;20442;-54
2021/08/25 10:59:09;;;;;;;6.20;4.03;;;;;;;;;;5056857;28;20446;-55
2021/08/25 11:05:06;;;;;;;5.73;3.13;;;;;;;;;;5058866;28;20480;-51
2021/08/25 11:07:43;;;;;;;5.77;3.60;;;;;;;;;;5057834;28;20469;-48
2021/08/25 11:10:11;;;;;;;10.50;5.40;;;;;;;;;;5058758;28;20469;-50
2021/08/25 11:12:46;;;;;;;10.20;5.70;;;;;;;;;;5039260;28;20481;-57
2021/08/25 11:15:14;;;;;;;6.37;3.43;;;;;;;;;;5059002;28;20437;-53
2021/08/25 11:17:42;;;;;;;7.27;4.07;;;;;;;;;;5058004;28;20453;-52
2021/08/25 11:20:10;;;;;;;7.13;3.80;;;;;;;;;;5058109;28;20450;-46
2021/08/25 11:22:44;;;;;;;7.50;3.87;;;;;;;;;;5058106;28;20428;-56
2021/08/25 11:25:13;;;;;;;7.40;3.87;;;;;;;;;;5058031;28;20445;-56
2021/08/25 11:27:59;;;;;;;8.10;4.90;;;;;;;;;;5038276;28;20479;-54
2021/08/25 11:30:34;;;;;;;9.30;3.80;;;;;;;;;;5057715;28;20449;-46
2021/08/25 11:33:15;;;;;;;7.97;3.80;;;;;;;;;;5048977;28;20495;-53
2021/08/25 11:36:03;;;;;;;7.60;4.43;;;;;;;;;;5038989;28;20454;-55
2021/08/25 11:38:37;;;;;;;6.97;3.07;;;;;;;;;;5053402;28;20477;-54
2021/08/25 11:41:06;;;;;;;6.30;3.70;;;;;;;;;;5040850;28;20443;-56
2021/08/25 11:43:40;;;;;;;5.50;3.10;;;;;;;;;;5038831;28;20451;-55
2021/08/25 11:46:13;;;;;;;8.30;4.50;;;;;;;;;;5038271;28;20897;-49
2021/08/25 11:48:40;;;;;;;7.23;3.60;;;;;;;;;;5037528;28;20585;-50
2021/08/25 11:51:09;;;;;;;12.03;4.63;;;;;;;;;;5057213;28;20478;-46
2021/08/25 11:53:44;;;;;;;10.40;5.60;;;;;;;;;;5058310;28;20489;-53
2021/08/25 11:56:12;;;;;;;9.57;5.07;;;;;;;;;;5058670;28;20446;-50
2021/08/25 12:01:47;;;;;;;7.37;3.97;;;;;;;;;;5134279;27;20474;-55
2021/08/25 12:04:28;;;;;;;9.20;4.40;;;;;;;;;;5133834;27;20446;-53
2021/08/25 12:06:56;;;;;;;9.50;4.83;;;;;;;;;;5130044;27;20528;-54
2021/08/25 12:09:35;;;;;;;9.37;5.07;;;;;;;;;;5133251;28;20489;-55
2021/08/25 12:12:03;;;;;;;9.87;5.20;;;;;;;;;;5123837;27;20447;-59
2021/08/25 12:14:51;;;;;;;10.07;5.30;;;;;;;;;;5112653;28;20513;-53
2021/08/25 12:17:23;;;;;;;6.30;4.10;;;;;;;;;;5113080;28;20443;-55
2021/08/25 12:20:14;;;;;;;12.20;5.80;;;;;;;;;;5117809;27;20497;-51
2021/08/25 12:22:43;;;;;;;12.17;7.17;;;;;;;;;;5125134;28;20454;-56
2021/08/25 12:25:10;;;;;;;8.47;5.43;;;;;;;;;;5133485;27;20445;-51
2021/08/25 12:27:47;;;;;;;9.60;5.50;;;;;;;;;;5129676;27;20439;-54
2021/08/25 12:30:14;;;;;;;9.67;5.97;;;;;;;;;;5142785;28;20468;-55
2021/08/25 12:32:46;;;;;;;10.80;5.63;;;;;;;;;;5133867;27;20515;-55
2021/08/25 12:35:24;;;;;;;9.17;4.90;;;;;;;;;;5133112;28;20458;-51
2021/08/25 12:37:52;;;;;;;12.87;5.40;;;;;;;;;;5132849;27;20453;-53
2021/08/25 12:40:22;;;;;;;8.80;4.70;;;;;;;;;;5132923;27;20476;-51
2021/08/25 12:42:50;;;;;;;9.23;4.13;;;;;;;;;;5132424;28;20429;-53
2021/08/25 12:45:25;;;;;;;12.73;5.50;;;;;;;;;;5132507;28;20511;-52
2021/08/25 12:47:55;;;;;;;7.80;4.27;;;;;;;;;;5112047;28;20455;-53
2021/08/25 12:50:24;;;;;;;7.40;4.73;;;;;;;;;;5112208;28;20435;-49
2021/08/25 12:52:54;;;;;;;11.47;4.87;;;;;;;;;;5112171;28;20515;-53
2021/08/25 12:55:22;;;;;;;15.70;5.93;;;;;;;;;;5131539;27;20431;-48
2021/08/25 12:57:54;;;;;;;9.50;4.33;;;;;;;;;;5132738;27;20434;-53
2021/08/25 13:00:22;;;;;;;8.53;4.60;;;;;;;;;;5132254;28;20504;-51
2021/08/25 13:02:51;;;;;;;9.40;5.60;;;;;;;;;;5131248;28;20454;-54
2021/08/25 13:05:29;;;;;;;7.10;4.60;;;;;;;;;;5131439;27;20443;-55
2021/08/25 13:08:09;;;;;;;6.90;4.70;;;;;;;;;;5130570;28;20474;-57
2021/08/25 13:10:37;;;;;;;6.83;4.20;;;;;;;;;;5131600;28;20453;-53
2021/08/25 13:13:06;;;;;;;6.43;4.60;;;;;;;;;;5117782;28;20462;-55
2021/08/25 13:15:33;;;;;;;7.97;4.60;;;;;;;;;;5118149;28;20465;-54
2021/08/25 13:18:29;;;;;;;11.00;5.23;;;;;;;;;;5118064;28;20447;-54
2021/08/25 13:20:57;;;;;;;8.70;5.67;;;;;;;;;;5117880;28;20478;-55
2021/08/25 13:23:27;;;;;;;8.10;4.80;;;;;;;;;;5096688;28;20940;-53
2021/08/25 13:25:58;;;;;;;9.40;5.30;;;;;;;;;;5097396;28;20467;-56
2021/08/25 13:28:30;;;;;;;10.53;4.57;;;;;;;;;;5109485;28;20453;-52
2021/08/25 13:31:09;;;;;;;11.20;5.67;;;;;;;;;;5118267;28;20451;-52
2021/08/25 13:33:39;;;;;;;8.80;4.70;;;;;;;;;;5117970;28;20467;-57
2021/08/25 13:36:31;;;;;;;9.93;5.33;;;;;;;;;;5118379;28;20445;-45
2021/08/25 13:39:12;;;;;;;6.63;4.57;;;;;;;;;;5118448;28;20463;-55
2021/08/25 13:41:40;;;;;;;10.90;4.90;;;;;;;;;;5101924;28;20558;-50
2021/08/25 13:44:10;;;;;;;9.40;5.10;;;;;;;;;;5118336;28;20480;-54
2021/08/25 13:46:43;;;;;;;9.30;4.67;;;;;;;;;;5115777;28;20557;-48
2021/08/25 13:49:19;;;;;;;11.80;5.70;;;;;;;;;;5116724;28;20452;-53
2021/08/25 13:51:48;;;;;;;11.73;7.10;;;;;;;;;;5117032;28;20584;-57
2021/08/25 13:54:30;;;;;;;12.80;6.00;;;;;;;;;;5116342;28;20440;-54
2021/08/25 13:56:58;;;;;;;8.23;4.80;;;;;;;;;;5117138;28;20451;-59
2021/08/25 14:02:26;;;;;;;8.40;4.50;;;;;;;;;;5117854;28;20480;-51
2021/08/25 14:04:59;;;;;;;10.40;6.10;;;;;;;;;;5098985;28;20463;-54
2021/08/25 14:07:51;;;;;;;9.93;5.97;;;;;;;;;;5115409;28;20479;-54
2021/08/25 14:10:21;;;;;;;13.70;6.23;;;;;;;;;;5110232;28;20514;-52
2021/08/25 14:12:58;;;;;;;10.53;5.10;;;;;;;;;;5097010;28;20454;-52
2021/08/25 14:15:36;;;;;;;9.07;5.20;;;;;;;;;;5104338;28;20630;-49
2021/08/25 14:18:26;;;;;;;12.43;6.07;;;;;;;;;;5098510;28;20466;-52
2021/08/25 14:20:55;;;;;;;9.93;4.90;;;;;;;;;;5102740;28;20474;-52
2021/08/25 14:23:35;;;;;;;9.00;5.30;;;;;;;;;;5106599;28;20446;-54
2021/08/25 14:26:37;;;;;;;11.20;5.77;;;;;;;;;;5097239;28;20448;-50
2021/08/25 14:29:33;;;;;;;13.93;7.40;;;;;;;;;;5130787;28;20445;-51
2021/08/25 14:32:07;;;;;;;11.70;6.77;;;;;;;;;;5131698;28;20451;-54
2021/08/25 14:34:35;;;;;;;14.03;5.90;;;;;;;;;;5110180;28;20467;-57
2021/08/25 14:37:10;;;;;;;10.00;5.33;;;;;;;;;;5119640;28;20458;-52
2021/08/25 14:39:50;;;;;;;10.20;6.63;;;;;;;;;;5128461;28;20513;-58
2021/08/25 14:42:26;;;;;;;10.70;6.93;;;;;;;;;;5122849;28;20461;-55
2021/08/25 14:45:26;;;;;;;11.87;6.37;;;;;;;;;;5117888;28;20714;-52
2021/08/25 14:48:12;;;;;;;9.70;6.63;;;;;;;;;;5118066;28;20477;-53
2021/08/25 14:50:43;;;;;;;12.30;6.73;;;;;;;;;;5118286;28;20485;-56
2021/08/25 14:53:14;;;;;;;13.90;7.10;;;;;;;;;;5120090;27;20448;-53
2021/08/25 14:55:41;;;;;;;11.53;5.73;;;;;;;;;;5130334;28;20523;-57
2021/08/25 14:58:12;;;;;;;10.30;6.13;;;;;;;;;;5117703;28;20489;-54
2021/08/25 15:00:40;;;;;;;14.57;6.70;;;;;;;;;;5096992;28;20502;-52
2021/08/25 15:06:13;;;;;;;13.03;7.13;;;;;;;;;;5120203;27;20458;-51
2021/08/25 15:08:40;;;;;;;13.20;6.67;;;;;;;;;;5115827;28;20436;-54
2021/08/25 15:11:17;;;;;;;11.77;6.83;;;;;;;;;;5105814;28;20482;-53
2021/08/25 15:13:45;;;;;;;16.27;7.10;;;;;;;;;;5099390;28;20456;-52
2021/08/25 15:16:32;;;;;;;15.60;7.70;;;;;;;;;;5117451;28;20450;-54
2021/08/25 15:19:00;;;;;;;14.00;7.60;;;;;;;;;;5116123;28;20463;-53
2021/08/25 15:21:31;;;;;;;13.77;7.40;;;;;;;;;;5117296;28;20495;-55
2021/08/25 15:24:11;;;;;;;17.57;7.60;;;;;;;;;;5117028;28;20438;-50
2021/08/25 15:26:45;;;;;;;15.80;9.40;;;;;;;;;;5117418;28;20459;-54
2021/08/25 15:29:20;;;;;;;8.33;5.43;;;;;;;;;;5111847;28;20483;-51
2021/08/25 15:31:50;;;;;;;17.70;7.00;;;;;;;;;;5114980;28;20459;-53
2021/08/25 15:34:41;;;;;;;12.80;6.33;;;;;;;;;;5116970;28;20493;-57
2021/08/25 15:37:10;;;;;;;12.00;6.43;;;;;;;;;;5116232;28;20439;-52
2021/08/25 15:39:40;;;;;;;9.50;5.30;;;;;;;;;;5116114;28;20451;-54
2021/08/25 15:42:27;;;;;;;9.70;5.97;;;;;;;;;;5116683;28;20475;-53
2021/08/25 15:44:56;;;;;;;10.77;6.33;;;;;;;;;;5122218;28;20499;-55
2021/08/25 15:47:29;;;;;;;10.33;5.70;;;;;;;;;;5116902;28;20443;-47
2021/08/25 15:50:03;;;;;;;10.20;5.47;;;;;;;;;;5099181;28;20507;-52
2021/08/25 15:52:45;;;;;;;11.60;6.60;;;;;;;;;;5104495;28;20427;-50
2021/08/25 15:58:18;;;;;;;15.63;5.50;;;;;;;;;;5117680;28;20486;-52
2021/08/25 16:00:54;;;;;;;7.77;5.13;;;;;;;;;;5116526;28;20501;-53